sensor_id;sensor_type;location;lat;lon;timestamp;pressure;altitude;pressure_sealevel;temperature;humidity
64967;BME280;51710;38.732;-121.358;2023-04-29T00:01:25;100686.81;;;32.58;33.92
64967;BME280;51710;38.732;-121.358;2023-04-29T00:03:52;100687.94;;;32.57;33.58
64967;BME280;51710;38.732;-121.358;2023-04-29T00:06:18;100686.91;;;32.53;33.12
64967;BME280;51710;38.732;-121.358;2023-04-29T00:08:45;100690.25;;;32.50;32.89
64967;BME280;51710;38.732;-121.358;2023-04-29T00:11:11;100686.50;;;32.46;33.17
64967;BME280;51710;38.732;-121.358;2023-04-29T00:13:37;100684.94;;;32.40;33.11
64967;BME280;51710;38.732;-121.358;2023-04-29T00:16:07;100686.03;;;32.39;32.82
64967;BME280;51710;38.732;-121.358;2023-04-29T00:18:36;100681.94;;;32.37;32.90
64967;BME280;51710;38.732;-121.358;2023-04-29T00:21:03;100683.94;;;32.31;32.71
64967;BME280;51710;38.732;-121.358;2023-04-29T00:23:34;100678.69;;;32.16;33.78
64967;BME280;51710;38.732;-121.358;2023-04-29T00:26:01;100679.97;;;32.05;34.04
64967;BME280;51710;38.732;-121.358;2023-04-29T00:28:27;100687.22;;;32.01;34.64
64967;BME280;51710;38.732;-121.358;2023-04-29T00:30:53;100684.47;;;32.01;34.47
64967;BME280;51710;38.732;-121.358;2023-04-29T00:33:20;100681.41;;;32.03;34.59
64967;BME280;51710;38.732;-121.358;2023-04-29T00:35:47;100685.28;;;32.02;33.99
64967;BME280;51710;38.732;-121.358;2023-04-29T00:38:13;100688.03;;;32.02;33.89
64967;BME280;51710;38.732;-121.358;2023-04-29T00:40:39;100684.97;;;32.03;33.05
64967;BME280;51710;38.732;-121.358;2023-04-29T00:43:05;100692.22;;;31.99;33.02
64967;BME280;51710;38.732;-121.358;2023-04-29T00:45:32;100681.53;;;31.92;33.16
64967;BME280;51710;38.732;-121.358;2023-04-29T00:47:58;100686.84;;;31.89;33.97
64967;BME280;51710;38.732;-121.358;2023-04-29T00:50:25;100681.31;;;31.89;33.17
64967;BME280;51710;38.732;-121.358;2023-04-29T00:52:51;100689.31;;;31.90;33.32
64967;BME280;51710;38.732;-121.358;2023-04-29T00:55:18;100685.44;;;31.91;32.28
64967;BME280;51710;38.732;-121.358;2023-04-29T00:57:45;100690.72;;;31.88;31.29
64967;BME280;51710;38.732;-121.358;2023-04-29T01:00:13;100687.50;;;31.81;31.34
64967;BME280;51710;38.732;-121.358;2023-04-29T01:02:41;100691.38;;;31.80;31.50
64967;BME280;51710;38.732;-121.358;2023-04-29T01:05:07;100692.47;;;31.79;31.19
64967;BME280;51710;38.732;-121.358;2023-04-29T01:10:09;100684.50;;;31.77;30.87
64967;BME280;51710;38.732;-121.358;2023-04-29T01:12:45;100694.00;;;31.71;29.96
64967;BME280;51710;38.732;-121.358;2023-04-29T01:15:20;100690.78;;;31.64;30.13
64967;BME280;51710;38.732;-121.358;2023-04-29T01:18:04;100691.13;;;31.58;29.46
64967;BME280;51710;38.732;-121.358;2023-04-29T01:20:32;100683.75;;;31.53;29.94
64967;BME280;51710;38.732;-121.358;2023-04-29T01:22:59;100684.88;;;31.52;30.43
64967;BME280;51710;38.732;-121.358;2023-04-29T01:25:26;100684.38;;;31.50;30.65
64967;BME280;51710;38.732;-121.358;2023-04-29T01:28:20;100690.22;;;31.44;30.01
64967;BME280;51710;38.732;-121.358;2023-04-29T01:39:13;100691.56;;;31.65;29.62
64967;BME280;51710;38.732;-121.358;2023-04-29T01:41:45;100684.50;;;31.77;29.13
64967;BME280;51710;38.732;-121.358;2023-04-29T01:44:20;100686.06;;;31.65;28.79
64967;BME280;51710;38.732;-121.358;2023-04-29T01:46:50;100685.53;;;31.44;29.27
64967;BME280;51710;38.732;-121.358;2023-04-29T01:49:27;100689.88;;;31.27;28.84
64967;BME280;51710;38.732;-121.358;2023-04-29T01:51:54;100686.72;;;31.15;29.22
64967;BME280;51710;38.732;-121.358;2023-04-29T01:54:21;100687.91;;;31.09;30.45
64967;BME280;51710;38.732;-121.358;2023-04-29T01:56:47;100684.94;;;31.00;31.11
64967;BME280;51710;38.732;-121.358;2023-04-29T01:59:14;100679.34;;;30.86;30.79
64967;BME280;51710;38.732;-121.358;2023-04-29T02:01:40;100677.19;;;30.78;31.18
64967;BME280;51710;38.732;-121.358;2023-04-29T02:04:06;100680.53;;;30.75;31.30
64967;BME280;51710;38.732;-121.358;2023-04-29T02:06:33;100676.72;;;30.71;30.15
64967;BME280;51710;38.732;-121.358;2023-04-29T02:08:59;100677.88;;;30.65;31.41
64967;BME280;51710;38.732;-121.358;2023-04-29T02:11:25;100678.34;;;30.49;30.79
64967;BME280;51710;38.732;-121.358;2023-04-29T02:13:51;100674.84;;;30.38;31.82
64967;BME280;51710;38.732;-121.358;2023-04-29T02:16:19;100677.97;;;30.22;31.91
64967;BME280;51710;38.732;-121.358;2023-04-29T02:18:45;100680.88;;;30.07;32.34
64967;BME280;51710;38.732;-121.358;2023-04-29T02:21:11;100675.19;;;29.93;32.31
64967;BME280;51710;38.732;-121.358;2023-04-29T02:23:38;100685.47;;;29.77;32.50
64967;BME280;51710;38.732;-121.358;2023-04-29T02:26:04;100678.94;;;29.63;32.13
64967;BME280;51710;38.732;-121.358;2023-04-29T02:28:32;100680.34;;;29.56;33.16
64967;BME280;51710;38.732;-121.358;2023-04-29T02:30:59;100686.97;;;29.45;32.68
64967;BME280;51710;38.732;-121.358;2023-04-29T02:33:26;100690.34;;;29.32;32.41
64967;BME280;51710;38.732;-121.358;2023-04-29T02:35:52;100684.09;;;29.21;32.82
64967;BME280;51710;38.732;-121.358;2023-04-29T02:38:18;100694.53;;;29.09;33.09
64967;BME280;51710;38.732;-121.358;2023-04-29T02:40:45;100677.56;;;28.97;33.46
64967;BME280;51710;38.732;-121.358;2023-04-29T02:43:11;100686.91;;;28.86;33.66
64967;BME280;51710;38.732;-121.358;2023-04-29T02:45:38;100692.44;;;28.76;33.27
64967;BME280;51710;38.732;-121.358;2023-04-29T02:48:05;100693.81;;;28.63;33.17
64967;BME280;51710;38.732;-121.358;2023-04-29T02:50:32;100694.66;;;28.59;32.99
64967;BME280;51710;38.732;-121.358;2023-04-29T02:52:58;100691.91;;;28.59;32.52
64967;BME280;51710;38.732;-121.358;2023-04-29T02:55:24;100701.22;;;28.63;32.19
64967;BME280;51710;38.732;-121.358;2023-04-29T02:57:51;100693.81;;;28.63;33.27
64967;BME280;51710;38.732;-121.358;2023-04-29T03:00:18;100698.19;;;28.59;33.01
64967;BME280;51710;38.732;-121.358;2023-04-29T03:02:45;100705.06;;;28.57;33.74
64967;BME280;51710;38.732;-121.358;2023-04-29T03:05:11;100704.81;;;28.53;34.40
64967;BME280;51710;38.732;-121.358;2023-04-29T03:07:37;100709.16;;;28.44;34.68
64967;BME280;51710;38.732;-121.358;2023-04-29T03:10:04;100697.09;;;28.35;34.19
64967;BME280;51710;38.732;-121.358;2023-04-29T03:12:31;100702.31;;;28.32;33.98
64967;BME280;51710;38.732;-121.358;2023-04-29T03:14:57;100706.72;;;28.28;34.75
64967;BME280;51710;38.732;-121.358;2023-04-29T03:17:23;100706.97;;;28.21;34.93
64967;BME280;51710;38.732;-121.358;2023-04-29T03:19:49;100711.38;;;28.12;34.52
64967;BME280;51710;38.732;-121.358;2023-04-29T03:22:17;100717.09;;;28.06;34.95
64967;BME280;51710;38.732;-121.358;2023-04-29T03:24:44;100709.44;;;28.03;34.45
64967;BME280;51710;38.732;-121.358;2023-04-29T03:27:10;100721.72;;;28.00;34.86
64967;BME280;51710;38.732;-121.358;2023-04-29T03:29:36;100725.28;;;27.96;34.98
64967;BME280;51710;38.732;-121.358;2023-04-29T03:32:03;100726.63;;;27.88;34.79
64967;BME280;51710;38.732;-121.358;2023-04-29T03:34:29;100737.56;;;27.83;35.24
64967;BME280;51710;38.732;-121.358;2023-04-29T03:36:56;100748.78;;;27.77;35.47
64967;BME280;51710;38.732;-121.358;2023-04-29T03:39:23;100752.03;;;27.68;36.06
64967;BME280;51710;38.732;-121.358;2023-04-29T03:41:49;100745.72;;;27.58;36.17
64967;BME280;51710;38.732;-121.358;2023-04-29T03:44:16;100753.84;;;27.48;36.20
64967;BME280;51710;38.732;-121.358;2023-04-29T03:46:42;100756.56;;;27.38;36.49
64967;BME280;51710;38.732;-121.358;2023-04-29T03:49:08;100763.59;;;27.29;36.46
64967;BME280;51710;38.732;-121.358;2023-04-29T03:51:34;100766.31;;;27.24;36.32
64967;BME280;51710;38.732;-121.358;2023-04-29T03:54:01;100765.75;;;27.22;36.05
64967;BME280;51710;38.732;-121.358;2023-04-29T03:56:27;100766.84;;;27.21;35.78
64967;BME280;51710;38.732;-121.358;2023-04-29T03:58:53;100783.25;;;27.21;35.54
64967;BME280;51710;38.732;-121.358;2023-04-29T04:01:19;100780.25;;;27.22;35.79
64967;BME280;51710;38.732;-121.358;2023-04-29T04:03:46;100786.56;;;27.23;35.63
64967;BME280;51710;38.732;-121.358;2023-04-29T04:06:12;100785.72;;;27.22;35.67
64967;BME280;51710;38.732;-121.358;2023-04-29T04:08:39;100784.34;;;27.20;36.06
64967;BME280;51710;38.732;-121.358;2023-04-29T04:11:06;100789.25;;;27.18;36.60
64967;BME280;51710;38.732;-121.358;2023-04-29T04:13:33;100794.13;;;27.06;36.84
64967;BME280;51710;38.732;-121.358;2023-04-29T04:15:59;100804.47;;;26.99;37.15
64967;BME280;51710;38.732;-121.358;2023-04-29T04:18:26;100806.88;;;26.95;37.35
64967;BME280;51710;38.732;-121.358;2023-04-29T04:20:52;100801.63;;;26.89;37.87
64967;BME280;51710;38.732;-121.358;2023-04-29T04:23:18;100813.31;;;26.79;38.17
64967;BME280;51710;38.732;-121.358;2023-04-29T04:25:48;100811.88;;;26.72;38.81
64967;BME280;51710;38.732;-121.358;2023-04-29T04:28:14;100818.38;;;26.65;39.16
64967;BME280;51710;38.732;-121.358;2023-04-29T04:30:41;100813.31;;;26.52;39.54
64967;BME280;51710;38.732;-121.358;2023-04-29T04:33:07;100823.56;;;26.35;39.90
64967;BME280;51710;38.732;-121.358;2023-04-29T04:35:35;100829.41;;;26.22;40.49
64967;BME280;51710;38.732;-121.358;2023-04-29T04:38:01;100828.16;;;26.08;40.86
64967;BME280;51710;38.732;-121.358;2023-04-29T04:40:27;100823.09;;;25.95;41.23
64967;BME280;51710;38.732;-121.358;2023-04-29T04:42:54;100831.16;;;25.85;40.82
64967;BME280;51710;38.732;-121.358;2023-04-29T04:45:20;100830.59;;;25.83;40.90
64967;BME280;51710;38.732;-121.358;2023-04-29T04:47:46;100827.84;;;25.83;41.53
64967;BME280;51710;38.732;-121.358;2023-04-29T04:50:13;100833.25;;;25.78;42.07
64967;BME280;51710;38.732;-121.358;2023-04-29T04:52:39;100839.19;;;25.75;42.49
64967;BME280;51710;38.732;-121.358;2023-04-29T04:55:06;100847.56;;;25.69;42.72
64967;BME280;51710;38.732;-121.358;2023-04-29T04:57:32;100846.88;;;25.56;43.04
64967;BME280;51710;38.732;-121.358;2023-04-29T04:59:58;100844.19;;;25.40;43.39
64967;BME280;51710;38.732;-121.358;2023-04-29T05:02:24;100844.44;;;25.22;43.92
64967;BME280;51710;38.732;-121.358;2023-04-29T05:04:51;100850.25;;;25.09;44.19
64967;BME280;51710;38.732;-121.358;2023-04-29T05:07:17;100850.56;;;24.96;45.06
64967;BME280;51710;38.732;-121.358;2023-04-29T05:09:43;100852.06;;;24.87;45.24
64967;BME280;51710;38.732;-121.358;2023-04-29T05:12:10;100848.59;;;24.75;45.65
64967;BME280;51710;38.732;-121.358;2023-04-29T05:14:36;100843.44;;;24.62;46.11
64967;BME280;51710;38.732;-121.358;2023-04-29T05:17:02;100852.50;;;24.50;46.24
64967;BME280;51710;38.732;-121.358;2023-04-29T05:19:29;100850.19;;;24.42;46.79
64967;BME280;51710;38.732;-121.358;2023-04-29T05:21:55;100857.44;;;24.25;47.74
64967;BME280;51710;38.732;-121.358;2023-04-29T05:24:21;100866.19;;;23.99;48.34
64967;BME280;51710;38.732;-121.358;2023-04-29T05:26:47;100864.56;;;23.75;49.20
64967;BME280;51710;38.732;-121.358;2023-04-29T05:29:16;100864.50;;;23.59;49.58
64967;BME280;51710;38.732;-121.358;2023-04-29T05:31:43;100862.75;;;23.41;49.78
64967;BME280;51710;38.732;-121.358;2023-04-29T05:34:09;100865.53;;;23.23;50.09
64967;BME280;51710;38.732;-121.358;2023-04-29T05:36:35;100861.38;;;23.09;50.92
64967;BME280;51710;38.732;-121.358;2023-04-29T05:39:02;100866.47;;;22.94;51.38
64967;BME280;51710;38.732;-121.358;2023-04-29T05:41:28;100873.19;;;22.80;51.83
64967;BME280;51710;38.732;-121.358;2023-04-29T05:43:54;100869.84;;;22.66;52.57
64967;BME280;51710;38.732;-121.358;2023-04-29T05:46:20;100870.16;;;22.58;52.72
64967;BME280;51710;38.732;-121.358;2023-04-29T05:48:47;100875.81;;;22.57;53.01
64967;BME280;51710;38.732;-121.358;2023-04-29T05:51:14;100870.84;;;22.54;53.16
64967;BME280;51710;38.732;-121.358;2023-04-29T05:53:41;100872.72;;;22.53;53.27
64967;BME280;51710;38.732;-121.358;2023-04-29T05:56:07;100876.25;;;22.54;53.49
64967;BME280;51710;38.732;-121.358;2023-04-29T05:58:36;100880.50;;;22.50;53.97
64967;BME280;51710;38.732;-121.358;2023-04-29T06:01:02;100883.53;;;22.42;54.31
64967;BME280;51710;38.732;-121.358;2023-04-29T06:03:28;100884.19;;;22.25;54.47
64967;BME280;51710;38.732;-121.358;2023-04-29T06:05:55;100883.53;;;22.12;54.66
64967;BME280;51710;38.732;-121.358;2023-04-29T06:08:23;100888.44;;;22.03;55.02
64967;BME280;51710;38.732;-121.358;2023-04-29T06:10:49;100884.38;;;21.94;54.93
64967;BME280;51710;38.732;-121.358;2023-04-29T06:13:17;100891.38;;;21.84;55.18
64967;BME280;51710;38.732;-121.358;2023-04-29T06:15:43;100890.22;;;21.73;55.46
64967;BME280;51710;38.732;-121.358;2023-04-29T06:18:10;100891.09;;;21.67;55.66
64967;BME280;51710;38.732;-121.358;2023-04-29T06:20:36;100890.31;;;21.67;55.72
64967;BME280;51710;38.732;-121.358;2023-04-29T06:23:02;100894.44;;;21.69;55.87
64967;BME280;51710;38.732;-121.358;2023-04-29T06:25:30;100899.19;;;21.74;55.62
64967;BME280;51710;38.732;-121.358;2023-04-29T06:27:56;100899.75;;;21.82;55.09
64967;BME280;51710;38.732;-121.358;2023-04-29T06:30:23;100909.25;;;21.91;54.88
64967;BME280;51710;38.732;-121.358;2023-04-29T06:32:49;100910.56;;;22.00;54.60
64967;BME280;51710;38.732;-121.358;2023-04-29T06:35:15;100895.03;;;22.07;54.18
64967;BME280;51710;38.732;-121.358;2023-04-29T06:37:41;100898.50;;;22.14;53.65
64967;BME280;51710;38.732;-121.358;2023-04-29T06:40:08;100897.59;;;22.20;53.33
64967;BME280;51710;38.732;-121.358;2023-04-29T06:42:34;100906.25;;;22.29;52.87
64967;BME280;51710;38.732;-121.358;2023-04-29T06:45:01;100908.88;;;22.35;52.94
64967;BME280;51710;38.732;-121.358;2023-04-29T06:47:28;100909.00;;;22.41;52.97
64967;BME280;51710;38.732;-121.358;2023-04-29T06:49:54;100912.31;;;22.43;52.79
64967;BME280;51710;38.732;-121.358;2023-04-29T06:52:20;100908.34;;;22.45;52.71
64967;BME280;51710;38.732;-121.358;2023-04-29T06:54:46;100908.34;;;22.45;52.68
64967;BME280;51710;38.732;-121.358;2023-04-29T06:57:13;100908.34;;;22.45;52.47
64967;BME280;51710;38.732;-121.358;2023-04-29T06:59:39;100911.66;;;22.47;52.56
64967;BME280;51710;38.732;-121.358;2023-04-29T07:02:05;100919.34;;;22.50;52.54
64967;BME280;51710;38.732;-121.358;2023-04-29T07:04:31;100912.03;;;22.51;52.56
64967;BME280;51710;38.732;-121.358;2023-04-29T07:06:58;100919.56;;;22.49;52.95
64967;BME280;51710;38.732;-121.358;2023-04-29T07:09:25;100911.28;;;22.44;53.10
64967;BME280;51710;38.732;-121.358;2023-04-29T07:11:52;100913.16;;;22.43;53.29
64967;BME280;51710;38.732;-121.358;2023-04-29T07:14:19;100915.75;;;22.38;53.22
64967;BME280;51710;38.732;-121.358;2023-04-29T07:16:52;100914.78;;;22.32;53.54
64967;BME280;51710;38.732;-121.358;2023-04-29T07:19:18;100918.38;;;22.26;53.62
64967;BME280;51710;38.732;-121.358;2023-04-29T07:21:45;100918.47;;;22.20;53.87
64967;BME280;51710;38.732;-121.358;2023-04-29T07:24:11;100920.59;;;22.18;54.27
64967;BME280;51710;38.732;-121.358;2023-04-29T07:26:37;100922.50;;;22.17;54.14
64967;BME280;51710;38.732;-121.358;2023-04-29T07:29:03;100926.84;;;22.18;53.79
64967;BME280;51710;38.732;-121.358;2023-04-29T07:31:29;100920.59;;;22.18;53.60
64967;BME280;51710;38.732;-121.358;2023-04-29T07:33:56;100930.25;;;22.14;53.65
64967;BME280;51710;38.732;-121.358;2023-04-29T07:36:22;100927.97;;;22.11;53.89
64967;BME280;51710;38.732;-121.358;2023-04-29T07:38:48;100926.56;;;22.08;53.90
64967;BME280;51710;38.732;-121.358;2023-04-29T07:41:14;100927.03;;;22.05;53.67
64967;BME280;51710;38.732;-121.358;2023-04-29T07:43:41;100925.81;;;22.01;53.59
64967;BME280;51710;38.732;-121.358;2023-04-29T07:46:07;100935.44;;;21.97;53.59
64967;BME280;51710;38.732;-121.358;2023-04-29T07:48:37;100925.72;;;21.90;53.82
64967;BME280;51710;38.732;-121.358;2023-04-29T07:51:04;100934.31;;;21.87;53.87
64967;BME280;51710;38.732;-121.358;2023-04-29T07:53:31;100929.59;;;21.82;54.10
64967;BME280;51710;38.732;-121.358;2023-04-29T07:55:57;100931.06;;;21.78;53.96
64967;BME280;51710;38.732;-121.358;2023-04-29T07:58:23;100935.25;;;21.74;54.21
64967;BME280;51710;38.732;-121.358;2023-04-29T08:00:49;100930.28;;;21.71;54.19
64967;BME280;51710;38.732;-121.358;2023-04-29T08:03:16;100929.91;;;21.68;54.38
64967;BME280;51710;38.732;-121.358;2023-04-29T08:05:42;100928.25;;;21.67;54.33
64967;BME280;51710;38.732;-121.358;2023-04-29T08:08:09;100933.06;;;21.65;54.78
64967;BME280;51710;38.732;-121.358;2023-04-29T08:10:37;100937.03;;;21.62;55.04
64967;BME280;51710;38.732;-121.358;2023-04-29T08:13:05;100932.06;;;21.59;54.96
64967;BME280;51710;38.732;-121.358;2023-04-29T08:15:31;100937.97;;;21.56;55.17
64967;BME280;51710;38.732;-121.358;2023-04-29T08:17:58;100943.66;;;21.48;55.37
64967;BME280;51710;38.732;-121.358;2023-04-29T08:20:25;100935.44;;;21.37;55.62
64967;BME280;51710;38.732;-121.358;2023-04-29T08:22:51;100941.16;;;21.22;55.89
64967;BME280;51710;38.732;-121.358;2023-04-29T08:25:18;100937.50;;;21.10;56.35
64967;BME280;51710;38.732;-121.358;2023-04-29T08:27:45;100930.50;;;20.96;56.49
64967;BME280;51710;38.732;-121.358;2023-04-29T08:30:11;100935.59;;;20.86;56.94
64967;BME280;51710;38.732;-121.358;2023-04-29T08:32:37;100932.72;;;20.81;57.30
64967;BME280;51710;38.732;-121.358;2023-04-29T08:35:04;100930.88;;;20.75;57.59
64967;BME280;51710;38.732;-121.358;2023-04-29T08:37:30;100931.13;;;20.67;57.66
64967;BME280;51710;38.732;-121.358;2023-04-29T08:39:57;100928.69;;;20.59;57.89
64967;BME280;51710;38.732;-121.358;2023-04-29T08:42:34;100925.59;;;20.55;58.04
64967;BME280;51710;38.732;-121.358;2023-04-29T08:45:02;100926.00;;;20.52;58.04
64967;BME280;51710;38.732;-121.358;2023-04-29T08:47:32;100920.25;;;20.42;58.59
64967;BME280;51710;38.732;-121.358;2023-04-29T08:50:03;100925.47;;;20.37;58.45
64967;BME280;51710;38.732;-121.358;2023-04-29T08:52:32;100915.91;;;20.35;58.77
64967;BME280;51710;38.732;-121.358;2023-04-29T08:54:59;100925.06;;;20.34;58.43
64967;BME280;51710;38.732;-121.358;2023-04-29T08:57:35;100922.38;;;20.34;58.59
64967;BME280;51710;38.732;-121.358;2023-04-29T09:00:09;100923.44;;;20.33;58.72
64967;BME280;51710;38.732;-121.358;2023-04-29T09:02:46;100921.75;;;20.32;58.33
64967;BME280;51710;38.732;-121.358;2023-04-29T09:05:14;100933.41;;;20.32;58.45
64967;BME280;51710;38.732;-121.358;2023-04-29T09:07:41;100923.44;;;20.33;58.10
64967;BME280;51710;38.732;-121.358;2023-04-29T09:10:09;100926.31;;;20.31;58.23
64967;BME280;51710;38.732;-121.358;2023-04-29T09:12:35;100924.88;;;20.29;58.07
64967;BME280;51710;38.732;-121.358;2023-04-29T09:15:02;100919.69;;;20.27;58.74
64967;BME280;51710;38.732;-121.358;2023-04-29T09:17:43;100921.56;;;20.27;58.74
64967;BME280;51710;38.732;-121.358;2023-04-29T09:25:15;100929.47;;;20.28;58.63
64967;BME280;51710;38.732;-121.358;2023-04-29T09:27:41;100923.22;;;20.28;58.69
64967;BME280;51710;38.732;-121.358;2023-04-29T09:30:08;100933.44;;;20.26;58.59
64967;BME280;51710;38.732;-121.358;2023-04-29T09:32:35;100924.72;;;20.24;58.58
64967;BME280;51710;38.732;-121.358;2023-04-29T09:35:23;100920.94;;;20.25;58.99
64967;BME280;51710;38.732;-121.358;2023-04-29T09:37:51;100925.34;;;20.26;58.47
64967;BME280;51710;38.732;-121.358;2023-04-29T09:40:31;100926.34;;;20.25;58.46
64967;BME280;51710;38.732;-121.358;2023-04-29T09:42:58;100930.13;;;20.24;58.26
64967;BME280;51710;38.732;-121.358;2023-04-29T09:45:38;100932.66;;;20.19;58.47
64967;BME280;51710;38.732;-121.358;2023-04-29T09:48:07;100922.19;;;20.15;58.64
64967;BME280;51710;38.732;-121.358;2023-04-29T09:50:35;100933.44;;;20.12;58.85
64967;BME280;51710;38.732;-121.358;2023-04-29T09:53:05;100929.31;;;20.10;58.87
64967;BME280;51710;38.732;-121.358;2023-04-29T09:56:02;100924.31;;;20.07;58.99
64967;BME280;51710;38.732;-121.358;2023-04-29T09:58:30;100921.22;;;20.03;59.10
64967;BME280;51710;38.732;-121.358;2023-04-29T10:01:02;100916.22;;;20.00;59.25
64967;BME280;51710;38.732;-121.358;2023-04-29T10:03:36;100914.78;;;19.98;59.19
64967;BME280;51710;38.732;-121.358;2023-04-29T10:06:06;100910.66;;;19.95;59.28
64967;BME280;51710;38.732;-121.358;2023-04-29T10:08:33;100917.72;;;19.90;59.49
64967;BME280;51710;38.732;-121.358;2023-04-29T10:11:02;100914.44;;;19.81;59.62
64967;BME280;51710;38.732;-121.358;2023-04-29T10:13:29;100917.97;;;19.75;59.74
64967;BME280;51710;38.732;-121.358;2023-04-29T10:16:26;100919.84;;;19.68;59.98
64967;BME280;51710;38.732;-121.358;2023-04-29T10:18:55;100915.72;;;19.66;60.11
64967;BME280;51710;38.732;-121.358;2023-04-29T10:21:27;100913.84;;;19.60;60.25
64967;BME280;51710;38.732;-121.358;2023-04-29T10:23:56;100918.84;;;19.56;60.65
64967;BME280;51710;38.732;-121.358;2023-04-29T10:26:27;100919.06;;;19.55;60.45
64967;BME280;51710;38.732;-121.358;2023-04-29T10:29:02;100914.50;;;19.55;60.32
64967;BME280;51710;38.732;-121.358;2023-04-29T10:31:30;100909.31;;;19.54;60.42
64967;BME280;51710;38.732;-121.358;2023-04-29T10:33:57;100916.56;;;19.53;60.65
64967;BME280;51710;38.732;-121.358;2023-04-29T10:36:27;100916.16;;;19.50;60.73
64967;BME280;51710;38.732;-121.358;2023-04-29T10:39:02;100917.44;;;19.47;60.82
64967;BME280;51710;38.732;-121.358;2023-04-29T10:41:42;100913.91;;;19.40;60.68
64967;BME280;51710;38.732;-121.358;2023-04-29T10:44:12;100917.44;;;19.34;61.09
64967;BME280;51710;38.732;-121.358;2023-04-29T10:46:39;100912.00;;;19.28;61.07
64967;BME280;51710;38.732;-121.358;2023-04-29T10:49:07;100910.97;;;19.22;61.35
64967;BME280;51710;38.732;-121.358;2023-04-29T10:51:43;100918.22;;;19.22;61.27
64967;BME280;51710;38.732;-121.358;2023-04-29T10:54:16;100914.09;;;19.19;61.26
64967;BME280;51710;38.732;-121.358;2023-04-29T10:56:50;100912.00;;;19.15;61.51
64967;BME280;51710;38.732;-121.358;2023-04-29T10:59:20;100908.25;;;19.09;61.85
64967;BME280;51710;38.732;-121.358;2023-04-29T11:01:48;100911.38;;;19.06;61.82
64967;BME280;51710;38.732;-121.358;2023-04-29T11:04:17;100909.72;;;19.05;61.70
64967;BME280;51710;38.732;-121.358;2023-04-29T11:06:55;100914.50;;;19.03;61.53
64967;BME280;51710;38.732;-121.358;2023-04-29T11:14:49;100919.91;;;18.96;61.47
64967;BME280;51710;38.732;-121.358;2023-04-29T11:17:17;100919.91;;;18.96;61.20
64967;BME280;51710;38.732;-121.358;2023-04-29T11:19:51;100921.56;;;18.91;61.62
64967;BME280;51710;38.732;-121.358;2023-04-29T11:22:26;100918.22;;;18.89;61.56
64967;BME280;51710;38.732;-121.358;2023-04-29T11:24:56;100924.84;;;18.86;61.46
64967;BME280;51710;38.732;-121.358;2023-04-29T11:27:33;100928.41;;;18.80;61.70
64967;BME280;51710;38.732;-121.358;2023-04-29T11:30:01;100922.78;;;18.75;61.93
64967;BME280;51710;38.732;-121.358;2023-04-29T11:32:34;100929.41;;;18.73;62.04
64967;BME280;51710;38.732;-121.358;2023-04-29T11:35:17;100932.31;;;18.71;61.97
64967;BME280;51710;38.732;-121.358;2023-04-29T11:37:45;100929.81;;;18.70;62.09
64967;BME280;51710;38.732;-121.358;2023-04-29T11:40:13;100919.47;;;18.67;61.97
64967;BME280;51710;38.732;-121.358;2023-04-29T11:42:47;100916.13;;;18.65;62.14
64967;BME280;51710;38.732;-121.358;2023-04-29T11:45:16;100910.09;;;18.63;62.18
64967;BME280;51710;38.732;-121.358;2023-04-29T11:47:45;100910.50;;;18.60;62.28
64967;BME280;51710;38.732;-121.358;2023-04-29T11:50:13;100917.34;;;18.56;62.38
64967;BME280;51710;38.732;-121.358;2023-04-29T11:52:46;100916.72;;;18.54;62.59
64967;BME280;51710;38.732;-121.358;2023-04-29T11:55:13;100927.50;;;18.54;62.40
64967;BME280;51710;38.732;-121.358;2023-04-29T11:57:39;100920.84;;;18.50;62.16
64967;BME280;51710;38.732;-121.358;2023-04-29T12:00:12;100922.31;;;18.46;62.35
64967;BME280;51710;38.732;-121.358;2023-04-29T12:02:42;100921.66;;;18.44;62.50
64967;BME280;51710;38.732;-121.358;2023-04-29T12:05:08;100919.75;;;18.38;62.77
64967;BME280;51710;38.732;-121.358;2023-04-29T12:07:37;100919.31;;;18.28;63.10
64967;BME280;51710;38.732;-121.358;2023-04-29T12:10:08;100922.19;;;18.20;62.66
64967;BME280;51710;38.732;-121.358;2023-04-29T12:12:35;100917.59;;;18.14;62.51
64967;BME280;51710;38.732;-121.358;2023-04-29T12:15:02;100927.13;;;18.10;62.76
64967;BME280;51710;38.732;-121.358;2023-04-29T12:17:30;100924.19;;;18.05;62.90
64967;BME280;51710;38.732;-121.358;2023-04-29T12:19:56;100925.00;;;17.98;62.66
64967;BME280;51710;38.732;-121.358;2023-04-29T12:22:30;100924.16;;;17.98;62.81
64967;BME280;51710;38.732;-121.358;2023-04-29T12:24:56;100931.03;;;18.01;62.62
64967;BME280;51710;38.732;-121.358;2023-04-29T12:27:23;100926.28;;;18.03;62.16
64967;BME280;51710;38.732;-121.358;2023-04-29T12:29:51;100934.72;;;17.99;62.48
64967;BME280;51710;38.732;-121.358;2023-04-29T12:32:21;100935.56;;;17.93;62.56
64967;BME280;51710;38.732;-121.358;2023-04-29T12:34:50;100935.50;;;17.87;62.61
64967;BME280;51710;38.732;-121.358;2023-04-29T12:37:17;100933.81;;;17.79;62.92
64967;BME280;51710;38.732;-121.358;2023-04-29T12:39:44;100937.94;;;17.75;62.79
64967;BME280;51710;38.732;-121.358;2023-04-29T12:42:17;100934.78;;;17.72;62.94
64967;BME280;51710;38.732;-121.358;2023-04-29T12:44:47;100932.31;;;17.70;63.07
64967;BME280;51710;38.732;-121.358;2023-04-29T12:47:14;100927.31;;;17.67;62.81